Greenfield, Missouri
Current Conditions -  °F | °C
As of 8:52 AM on Monday 22 Dec 2014 (Local Time) from KSGF Reporting Station
Light Rain Light Rain  
Wind Chill:   Ceiling: 6000
Heat Index:   Visibility: 5mi
Dew Point:   Wind: 14mph
Humidity: 89%   Direction: 140°SE
Pressure: 29.62"   Gusts: NA
Location:  37.42°N, 93.84°W
Report Text: KSGF 221452Z 14012KT 5SM -RA BR OVC060 07/05 A2962 RMK AO2 SLP033 P0002 60002 T00670050 58007
Loading
Personal Weather Stations






























Interactive Weather Map New forecast layout! Learn more

10-Day Weather Forecast

Advertisements
Track Severe Weather on mobile